Terminal Aerodrome Forecast
Issued by NWS Portland, OR

Home | Current Version | Previous Version | Text Only | Print | Product List | Glossary On
Versions: 1 2 3 4 5 6 7 8 9 10 11 12 13 14 15 16 17 18 19 20 21 22 23 24 25 26 27 28 29 30 31 32
000
FTUS46 KPQR 011122
TAFTTD
TAF
KTTD 011122Z 0112/0212 VRB04KT P6SM OVC050
     FM011900 18005KT P6SM VCSH SCT035 BKN050 OVC080
     FM012300 24005KT P6SM VCSH SCT035 BKN050
     FM020700 24004KT P6SM SCT050 BKN150=

USA.gov is the U.S. government's official web portal to all federal, state and local government web resources and services.